createdAt,value
2019-04-10T00:00:23.914Z,7.62
2019-04-10T00:01:23.902Z,7.63
2019-04-10T00:02:23.890Z,7.69
2019-04-10T00:03:32.328Z,7.69
2019-04-10T00:04:25.224Z,7.62
2019-04-10T00:05:23.857Z,7.55
2019-04-10T00:06:23.844Z,7.42
2019-04-10T00:07:23.835Z,7.53
2019-04-10T00:08:23.822Z,7.44
2019-04-10T00:09:23.811Z,7.56
2019-04-10T00:10:23.817Z,7.45
2019-04-10T00:11:24.821Z,7.41
2019-04-10T00:12:23.781Z,7.38
2019-04-10T00:13:24.702Z,7.22
2019-04-10T00:14:24.057Z,7.26
2019-04-10T00:15:24.321Z,7.34
2019-04-10T00:16:24.491Z,7.23
2019-04-10T00:17:23.719Z,7.24
2019-04-10T00:18:24.139Z,7.26
2019-04-10T00:19:23.716Z,7.27
2019-04-10T00:20:24.565Z,7.29
2019-04-10T00:21:23.672Z,7.29
2019-04-10T00:22:24.311Z,7.24
2019-04-10T00:23:24.762Z,7.22
2019-04-10T00:24:23.989Z,7.23
2019-04-10T00:25:24.423Z,7.07
2019-04-10T00:26:23.819Z,7.08
2019-04-10T00:27:23.604Z,7.12
2019-04-10T00:28:23.593Z,7.13
2019-04-10T00:29:24.515Z,7.19
2019-04-10T00:30:23.598Z,7.12
2019-04-10T00:31:24.332Z,7.09
2019-04-10T00:32:23.800Z,7.05
2019-04-10T00:33:23.557Z,7.15
2019-04-10T00:34:23.524Z,7.02
2019-04-10T00:35:23.662Z,6.98
2019-04-10T00:36:23.501Z,7.05
2019-04-10T00:37:28.159Z,6.94
2019-04-10T00:38:24.477Z,6.95
2019-04-10T00:39:23.478Z,6.98
2019-04-10T00:40:23.670Z,7.13
2019-04-10T00:41:23.981Z,7.05
2019-04-10T00:42:23.433Z,7.01
2019-04-10T00:43:24.517Z,6.87
2019-04-10T00:44:23.761Z,7.01
2019-04-10T00:45:23.420Z,6.95
2019-04-10T00:46:24.283Z,6.98
2019-04-10T00:47:23.374Z,6.95
2019-04-10T00:48:23.948Z,6.98
2019-04-10T00:49:23.930Z,6.91
2019-04-10T00:50:23.381Z,6.81
2019-04-10T00:51:23.554Z,6.77
2019-04-10T00:52:24.083Z,6.89
2019-04-10T00:53:23.337Z,6.84
2019-04-10T00:54:23.741Z,6.87
2019-04-10T00:55:23.785Z,6.95
2019-04-10T00:56:24.282Z,6.87
2019-04-10T00:57:23.582Z,6.98
2019-04-10T00:58:23.254Z,6.84
2019-04-10T00:59:24.137Z,6.84
2019-04-10T01:00:23.581Z,6.89
2019-04-10T01:01:23.683Z,6.76
2019-04-10T01:02:23.209Z,6.83
2019-04-10T01:03:23.613Z,6.80
2019-04-10T01:04:23.178Z,6.81
2019-04-10T01:05:23.167Z,6.79
2019-04-10T01:06:24.111Z,6.79
2019-04-10T01:07:33.704Z,6.76
2019-04-10T01:08:24.495Z,6.68
2019-04-10T01:09:23.657Z,6.79
2019-04-10T01:10:23.138Z,6.76
2019-04-10T01:11:23.237Z,6.72
2019-04-10T01:12:23.630Z,6.73
2019-04-10T01:13:23.075Z,6.69
2019-04-10T01:14:23.403Z,6.69
2019-04-10T01:15:23.051Z,6.63
2019-04-10T01:16:23.177Z,6.72
2019-04-10T01:17:23.031Z,6.59
2019-04-10T01:18:23.397Z,6.59
2019-04-10T01:19:23.849Z,6.59
2019-04-10T01:20:23.816Z,6.65
2019-04-10T01:21:23.185Z,6.65
2019-04-10T01:22:23.937Z,6.54
2019-04-10T01:23:22.958Z,6.44
2019-04-10T01:24:23.745Z,6.43
2019-04-10T01:25:24.122Z,6.54
2019-04-10T01:26:23.296Z,6.48
2019-04-10T01:27:23.662Z,6.44
2019-04-10T01:28:22.901Z,6.50
2019-04-10T01:29:22.890Z,6.53
2019-04-10T01:30:22.876Z,6.30
2019-04-10T01:31:23.297Z,6.33
2019-04-10T01:32:23.791Z,6.41
2019-04-10T01:33:22.848Z,6.35
2019-04-10T01:34:22.838Z,6.54
2019-04-10T01:35:22.820Z,6.36
2019-04-10T01:36:22.873Z,6.38
2019-04-10T01:37:22.991Z,6.40
2019-04-10T01:38:22.782Z,6.33
2019-04-10T01:39:22.773Z,6.33
2019-04-10T01:40:23.419Z,6.28
2019-04-10T01:41:23.804Z,6.35
2019-04-10T01:42:22.907Z,6.32
2019-04-10T01:43:22.724Z,6.35
2019-04-10T01:44:22.798Z,6.28
2019-04-10T01:45:22.703Z,6.32
2019-04-10T01:46:22.693Z,6.18
2019-04-10T01:47:23.424Z,6.25
2019-04-10T01:48:23.780Z,6.19
2019-04-10T01:49:22.655Z,6.13
2019-04-10T01:50:22.648Z,6.21
2019-04-10T01:51:23.413Z,6.25
2019-04-10T01:52:22.771Z,6.26
2019-04-10T01:53:22.631Z,6.16
2019-04-10T01:54:22.779Z,6.26
2019-04-10T01:55:25.768Z,6.14
2019-04-10T01:56:29.432Z,6.19
2019-04-10T01:57:24.065Z,6.18
2019-04-10T01:58:23.181Z,6.21
2019-04-10T01:59:23.392Z,6.25
2019-04-10T02:00:23.598Z,6.21
2019-04-10T02:01:22.517Z,6.25
2019-04-10T02:02:23.178Z,6.04
2019-04-10T02:03:22.493Z,6.18
2019-04-10T02:04:22.803Z,6.11
2019-04-10T02:05:22.804Z,6.06
2019-04-10T02:06:22.458Z,6.14
2019-04-10T02:07:23.113Z,6.01
2019-04-10T02:08:23.579Z,5.88
2019-04-10T02:09:23.433Z,6.00
2019-04-10T02:10:22.415Z,5.88
2019-04-10T02:11:22.405Z,5.81
2019-04-10T02:12:22.846Z,5.85
2019-04-10T02:13:23.322Z,5.89
2019-04-10T02:14:22.469Z,5.83
2019-04-10T02:15:22.353Z,5.91
2019-04-10T02:16:22.894Z,5.85
2019-04-10T02:17:22.335Z,5.82
2019-04-10T02:18:23.435Z,5.91
2019-04-10T02:19:22.311Z,5.81
2019-04-10T02:20:22.974Z,5.85
2019-04-10T02:21:23.387Z,5.85
2019-04-10T02:22:22.559Z,5.77
2019-04-10T02:23:22.594Z,5.89
2019-04-10T02:24:22.969Z,5.78
2019-04-10T02:25:22.261Z,5.78
2019-04-10T02:26:22.355Z,5.73
2019-04-10T02:27:22.498Z,5.75
2019-04-10T02:28:22.767Z,5.70
2019-04-10T02:29:22.196Z,5.67
2019-04-10T02:30:23.904Z,5.70
2019-04-10T02:31:24.142Z,5.70
2019-04-10T02:32:22.163Z,5.67
2019-04-10T02:33:23.258Z,5.52
2019-04-10T02:34:23.218Z,5.68
2019-04-10T02:35:24.594Z,5.66
2019-04-10T02:36:23.521Z,5.59
2019-04-10T02:37:22.911Z,5.66
2019-04-10T02:38:38.674Z,5.70
2019-04-10T02:39:27.443Z,5.68
2019-04-10T02:40:23.582Z,5.64
2019-04-10T02:41:22.167Z,5.60
2019-04-10T02:42:22.597Z,5.60
2019-04-10T02:43:23.274Z,5.66
2019-04-10T02:44:22.926Z,5.50
2019-04-10T02:45:22.143Z,5.45
2019-04-10T02:46:22.153Z,5.43
2019-04-10T02:47:23.076Z,5.48
2019-04-10T02:48:23.364Z,5.43
2019-04-10T02:49:22.506Z,5.37
2019-04-10T02:50:21.984Z,5.41
2019-04-10T02:51:23.641Z,5.35
2019-04-10T02:52:22.648Z,5.37
2019-04-10T02:53:23.260Z,5.23
2019-04-10T02:54:21.912Z,5.30
2019-04-10T02:55:23.030Z,5.28
2019-04-10T02:56:23.758Z,5.20
2019-04-10T02:57:22.016Z,5.30
2019-04-10T02:58:22.267Z,5.07
2019-04-10T02:59:23.318Z,5.19
2019-04-10T03:00:22.535Z,5.14
2019-04-10T03:01:23.500Z,5.17
2019-04-10T03:02:22.097Z,5.10
2019-04-10T03:03:22.454Z,5.09
2019-04-10T03:04:22.123Z,5.22
2019-04-10T03:05:23.713Z,5.14
2019-04-10T03:06:22.841Z,5.13
2019-04-10T03:07:22.105Z,5.05
2019-04-10T03:08:38.279Z,5.02
2019-04-10T03:09:37.126Z,5.05
2019-04-10T03:10:30.022Z,5.04
2019-04-10T03:11:24.355Z,5.04
2019-04-10T03:12:21.978Z,4.98
2019-04-10T03:13:21.958Z,4.96
2019-04-10T03:14:21.687Z,4.95
2019-04-10T03:15:23.096Z,4.89
2019-04-10T03:16:21.711Z,4.91
2019-04-10T03:17:21.652Z,4.96
2019-04-10T03:18:21.638Z,4.91
2019-04-10T03:19:21.627Z,4.89
2019-04-10T03:20:22.461Z,4.88
2019-04-10T03:21:22.777Z,4.94
2019-04-10T03:22:21.594Z,4.84
2019-04-10T03:23:21.582Z,4.92
2019-04-10T03:24:21.568Z,4.86
2019-04-10T03:25:21.563Z,4.79
2019-04-10T03:26:21.581Z,4.80
2019-04-10T03:27:22.576Z,4.84
2019-04-10T03:28:21.527Z,4.73
2019-04-10T03:29:21.972Z,4.76
2019-04-10T03:30:23.459Z,4.65
2019-04-10T03:31:22.953Z,4.72
2019-04-10T03:32:23.090Z,4.64
2019-04-10T03:33:26.563Z,4.72
2019-04-10T03:34:23.086Z,4.70
2019-04-10T03:35:21.445Z,4.69
2019-04-10T03:36:21.431Z,4.58
2019-04-10T03:37:22.357Z,4.50
2019-04-10T03:38:21.732Z,4.55
2019-04-10T03:39:21.685Z,4.54
2019-04-10T03:40:21.645Z,4.58
2019-04-10T03:41:21.385Z,4.47
2019-04-10T03:42:21.383Z,4.47
2019-04-10T03:43:21.613Z,4.46
2019-04-10T03:44:21.342Z,4.40
2019-04-10T03:45:22.389Z,4.33
2019-04-10T03:46:21.503Z,4.24
2019-04-10T03:47:21.329Z,4.34
2019-04-10T03:48:21.299Z,4.28
2019-04-10T03:49:22.103Z,4.22
2019-04-10T03:50:21.277Z,4.37
2019-04-10T03:51:21.264Z,4.16
2019-04-10T03:52:21.270Z,4.21
2019-04-10T03:53:22.308Z,4.37
2019-04-10T03:54:21.242Z,4.40
2019-04-10T03:55:21.236Z,4.50
2019-04-10T03:56:21.403Z,4.54
2019-04-10T03:57:21.251Z,4.51
2019-04-10T03:58:21.185Z,4.43
2019-04-10T03:59:22.273Z,4.40
2019-04-10T04:00:22.356Z,4.26
2019-04-10T04:01:21.149Z,4.25
2019-04-10T04:02:21.919Z,4.26
2019-04-10T04:03:21.128Z,4.39
2019-04-10T04:04:21.649Z,4.29
2019-04-10T04:05:21.103Z,4.25
2019-04-10T04:06:21.683Z,4.18
2019-04-10T04:07:21.080Z,4.21
2019-04-10T04:08:21.581Z,4.19
2019-04-10T04:09:21.680Z,4.18
2019-04-10T04:10:21.046Z,4.14
2019-04-10T04:11:21.772Z,4.07
2019-04-10T04:12:21.025Z,4.21
2019-04-10T04:13:21.667Z,3.85
2019-04-10T04:14:21.984Z,3.94
2019-04-10T04:15:21.965Z,3.86
2019-04-10T04:16:20.980Z,3.98
2019-04-10T04:17:22.135Z,3.88
2019-04-10T04:18:21.382Z,3.78
2019-04-10T04:19:21.800Z,3.85
2019-04-10T04:20:21.186Z,3.78
2019-04-10T04:21:20.923Z,3.78
2019-04-10T04:22:20.973Z,3.72
2019-04-10T04:23:21.492Z,3.79
2019-04-10T04:24:22.553Z,3.67
2019-04-10T04:25:21.923Z,3.80
2019-04-10T04:26:21.259Z,3.75
2019-04-10T04:27:21.604Z,3.82
2019-04-10T04:28:20.863Z,3.72
2019-04-10T04:29:20.832Z,3.64
2019-04-10T04:30:20.821Z,3.58
2019-04-10T04:31:20.810Z,3.62
2019-04-10T04:32:21.780Z,3.68
2019-04-10T04:33:21.140Z,3.64
2019-04-10T04:34:20.946Z,3.85
2019-04-10T04:35:20.763Z,3.96
2019-04-10T04:36:20.752Z,4.04
2019-04-10T04:37:20.910Z,3.92
2019-04-10T04:38:20.731Z,3.85
2019-04-10T04:39:26.205Z,3.79
2019-04-10T04:40:21.830Z,3.76
2019-04-10T04:41:20.697Z,3.75
2019-04-10T04:42:20.683Z,3.71
2019-04-10T04:43:21.734Z,3.67
2019-04-10T04:44:20.680Z,3.52
2019-04-10T04:45:21.541Z,3.60
2019-04-10T04:46:20.639Z,3.52
2019-04-10T04:47:20.630Z,3.58
2019-04-10T04:48:21.846Z,3.67
2019-04-10T04:49:20.759Z,3.52
2019-04-10T04:50:20.596Z,3.71
2019-04-10T04:51:20.583Z,3.60
2019-04-10T04:52:20.575Z,3.58
2019-04-10T04:53:20.561Z,3.60
2019-04-10T04:54:21.324Z,3.50
2019-04-10T04:55:20.538Z,3.50
2019-04-10T04:56:20.527Z,3.50
2019-04-10T04:57:20.537Z,3.44
2019-04-10T04:58:20.502Z,3.46
2019-04-10T04:59:20.640Z,3.52
2019-04-10T05:00:21.498Z,3.57
2019-04-10T05:01:21.069Z,3.40
2019-04-10T05:02:20.459Z,3.50
2019-04-10T05:03:20.815Z,3.36
2019-04-10T05:04:20.525Z,3.44
2019-04-10T05:05:20.477Z,3.57
2019-04-10T05:06:20.410Z,3.43
2019-04-10T05:07:20.547Z,3.46
2019-04-10T05:08:20.388Z,3.47
2019-04-10T05:09:30.153Z,3.33
2019-04-10T05:10:21.387Z,3.46
2019-04-10T05:11:20.540Z,3.25
2019-04-10T05:12:20.369Z,3.33
2019-04-10T05:13:20.333Z,3.25
2019-04-10T05:14:20.323Z,3.46
2019-04-10T05:15:20.641Z,3.54
2019-04-10T05:16:20.658Z,3.53
2019-04-10T05:17:20.286Z,3.68
2019-04-10T05:18:21.231Z,3.67
2019-04-10T05:19:21.081Z,3.79
2019-04-10T05:20:20.283Z,3.75
2019-04-10T05:21:21.318Z,3.78
2019-04-10T05:22:20.229Z,3.72
2019-04-10T05:23:20.254Z,3.64
2019-04-10T05:24:20.209Z,3.65
2019-04-10T05:25:21.071Z,3.60
2019-04-10T05:26:20.775Z,3.58
2019-04-10T05:27:20.176Z,3.65
2019-04-10T05:28:20.443Z,3.62
2019-04-10T05:29:20.151Z,3.61
2019-04-10T05:30:20.671Z,3.64
2019-04-10T05:31:20.128Z,3.53
2019-04-10T05:32:21.326Z,3.64
2019-04-10T05:33:20.565Z,3.52
2019-04-10T05:34:20.096Z,3.54
2019-04-10T05:35:20.101Z,3.62
2019-04-10T05:36:20.074Z,3.68
2019-04-10T05:37:21.193Z,3.65
2019-04-10T05:38:20.758Z,3.75
2019-04-10T05:39:20.041Z,3.71
2019-04-10T05:40:20.045Z,3.75
2019-04-10T05:41:20.040Z,3.64
2019-04-10T05:42:20.603Z,3.82
2019-04-10T05:43:20.030Z,3.80
2019-04-10T05:44:20.190Z,3.78
2019-04-10T05:45:21.143Z,3.75
2019-04-10T05:46:21.520Z,3.90
2019-04-10T05:47:19.949Z,3.76
2019-04-10T05:48:22.474Z,3.85
2019-04-10T05:49:20.663Z,3.85
2019-04-10T05:50:19.934Z,3.88
2019-04-10T05:51:19.904Z,3.85
2019-04-10T05:52:20.347Z,4.01
2019-04-10T05:53:20.387Z,4.18
2019-04-10T05:54:19.866Z,4.24
2019-04-10T05:55:20.430Z,4.50
2019-04-10T05:56:20.699Z,4.43
2019-04-10T05:57:20.238Z,4.42
2019-04-10T05:58:19.822Z,4.46
2019-04-10T05:59:19.814Z,4.46
2019-04-10T06:00:20.786Z,4.50
2019-04-10T06:01:31.423Z,4.43
2019-04-10T06:02:20.775Z,4.54
2019-04-10T06:03:20.712Z,4.55
2019-04-10T06:04:19.753Z,4.70
2019-04-10T06:05:20.302Z,5.20
2019-04-10T06:06:20.031Z,6.00
2019-04-10T06:07:19.725Z,6.71
2019-04-10T06:08:19.708Z,7.35
2019-04-10T06:09:20.571Z,7.78
2019-04-10T06:10:19.750Z,7.97
2019-04-10T06:11:20.550Z,8.22
2019-04-10T06:12:20.323Z,8.71
2019-04-10T06:13:19.653Z,8.81
2019-04-10T06:14:19.641Z,9.01
2019-04-10T06:15:19.630Z,9.50
2019-04-10T06:16:19.677Z,10.10
2019-04-10T06:17:20.598Z,9.85
2019-04-10T06:18:20.706Z,9.78
2019-04-10T06:19:19.978Z,9.97
2019-04-10T06:20:20.816Z,10.03
2019-04-10T06:21:19.560Z,10.36
2019-04-10T06:22:20.740Z,10.56
2019-04-10T06:23:19.561Z,10.80
2019-04-10T06:24:20.403Z,11.16
2019-04-10T06:25:21.484Z,11.67
2019-04-10T06:26:19.951Z,12.26
2019-04-10T06:27:20.518Z,12.51
2019-04-10T06:28:19.476Z,13.03
2019-04-10T06:29:19.466Z,12.89
2019-04-10T06:30:19.753Z,13.11
2019-04-10T06:31:19.446Z,12.96
2019-04-10T06:32:19.453Z,12.52
2019-04-10T06:33:20.132Z,12.71
2019-04-10T06:34:20.515Z,12.96
2019-04-10T06:35:19.754Z,12.95
2019-04-10T06:36:19.581Z,13.43
2019-04-10T06:37:19.394Z,14.07
2019-04-10T06:38:19.364Z,14.50
2019-04-10T06:39:20.422Z,15.05
2019-04-10T06:40:22.511Z,15.43
2019-04-10T06:41:20.327Z,15.42
2019-04-10T06:42:20.311Z,15.19
2019-04-10T06:43:19.327Z,14.74
2019-04-10T06:44:19.549Z,14.83
2019-04-10T06:45:19.861Z,15.35
2019-04-10T06:46:20.131Z,15.82
2019-04-10T06:47:20.278Z,16.38
2019-04-10T06:48:19.316Z,16.70
2019-04-10T06:49:19.234Z,17.06
2019-04-10T06:50:19.223Z,17.25
2019-04-10T06:51:21.025Z,16.99
2019-04-10T06:52:19.200Z,16.50
2019-04-10T06:53:19.205Z,16.12
2019-04-10T06:54:19.188Z,15.84
2019-04-10T06:55:19.164Z,15.63
2019-04-10T06:56:19.151Z,15.63
2019-04-10T06:57:19.143Z,16.16
2019-04-10T06:58:20.106Z,16.53
2019-04-10T06:59:19.201Z,17.11
2019-04-10T07:00:26.140Z,17.28
2019-04-10T07:01:22.391Z,17.30
2019-04-10T07:02:25.619Z,17.13
2019-04-10T07:03:21.139Z,17.48
2019-04-10T07:04:21.866Z,17.20
2019-04-10T07:05:20.052Z,17.59
2019-04-10T07:06:22.334Z,18.31
2019-04-10T07:07:21.842Z,18.50
2019-04-10T07:08:22.185Z,18.40
2019-04-10T07:09:21.323Z,17.94
2019-04-10T07:10:27.326Z,18.27
2019-04-10T07:11:21.744Z,18.70
2019-04-10T07:12:18.970Z,18.61
2019-04-10T07:13:19.706Z,18.72
2019-04-10T07:14:18.970Z,19.23
2019-04-10T07:15:21.190Z,19.32
2019-04-10T07:16:20.011Z,18.76
2019-04-10T07:17:19.921Z,18.70
2019-04-10T07:18:20.612Z,18.97
2019-04-10T07:19:19.849Z,19.14
2019-04-10T07:20:20.638Z,19.40
2019-04-10T07:21:20.063Z,19.79
2019-04-10T07:22:18.855Z,19.97
2019-04-10T07:23:24.187Z,19.69
2019-04-10T07:24:20.825Z,19.38
2019-04-10T07:25:19.639Z,19.54
2019-04-10T07:26:29.118Z,19.46
2019-04-10T07:27:19.796Z,20.03
2019-04-10T07:28:19.519Z,19.86
2019-04-10T07:29:21.084Z,19.10
2019-04-10T07:30:24.093Z,18.54
2019-04-10T07:31:19.751Z,19.13
2019-04-10T07:32:19.465Z,19.70
2019-04-10T07:33:20.696Z,19.94
2019-04-10T07:34:22.020Z,20.66
2019-04-10T07:35:21.760Z,20.86
2019-04-10T07:36:18.701Z,21.05
2019-04-10T07:37:21.690Z,21.24
2019-04-10T07:38:21.197Z,21.27
2019-04-10T07:39:18.686Z,21.38
2019-04-10T07:40:18.740Z,21.34
2019-04-10T07:41:21.910Z,21.74
2019-04-10T07:42:28.389Z,21.92
2019-04-10T07:43:25.449Z,22.16
2019-04-10T07:44:19.629Z,22.39
2019-04-10T07:45:18.595Z,22.75
2019-04-10T07:46:18.584Z,22.60
2019-04-10T07:47:20.540Z,22.27
2019-04-10T07:48:18.559Z,22.02
2019-04-10T07:49:19.735Z,21.99
2019-04-10T07:50:18.558Z,21.82
2019-04-10T07:51:19.031Z,21.83
2019-04-10T07:52:20.085Z,21.45
2019-04-10T07:53:18.963Z,21.94
2019-04-10T07:54:21.244Z,22.02
2019-04-10T07:55:19.057Z,22.07
2019-04-10T07:56:20.807Z,21.88
2019-04-10T07:57:18.462Z,22.49
2019-04-10T07:58:19.397Z,22.96
2019-04-10T07:59:18.551Z,23.34
2019-04-10T08:00:18.424Z,23.19
2019-04-10T08:01:18.430Z,21.81
2019-04-10T08:02:18.402Z,21.24
2019-04-10T08:03:18.838Z,20.72
2019-04-10T08:04:18.395Z,20.62
2019-04-10T08:05:18.845Z,20.76
2019-04-10T08:06:18.378Z,21.26
2019-04-10T08:07:26.704Z,21.06
2019-04-10T08:08:19.449Z,21.27
2019-04-10T08:09:18.877Z,20.79
2019-04-10T08:10:18.314Z,20.62
2019-04-10T08:11:18.323Z,20.80
2019-04-10T08:12:19.007Z,20.76
2019-04-10T08:13:18.288Z,20.18
2019-04-10T08:14:18.269Z,19.90
2019-04-10T08:15:18.930Z,20.28
2019-04-10T08:16:18.996Z,20.34
2019-04-10T08:17:18.238Z,20.64
2019-04-10T08:18:18.923Z,21.30
2019-04-10T08:19:18.677Z,21.36
2019-04-10T08:20:18.214Z,21.21
2019-04-10T08:21:18.212Z,21.16
2019-04-10T08:22:18.184Z,21.13
2019-04-10T08:23:18.170Z,20.90
2019-04-10T08:24:18.221Z,20.66
2019-04-10T08:25:18.449Z,21.51
2019-04-10T08:26:18.366Z,22.13
2019-04-10T08:27:19.251Z,22.89
2019-04-10T08:28:18.121Z,23.46
2019-04-10T08:29:18.244Z,23.87
2019-04-10T08:30:18.093Z,23.94
2019-04-10T08:31:19.045Z,23.45
2019-04-10T08:32:18.193Z,23.24
2019-04-10T08:33:18.058Z,23.75
2019-04-10T08:34:18.047Z,24.05
2019-04-10T08:35:18.035Z,23.35
2019-04-10T08:36:18.042Z,23.27
2019-04-10T08:37:18.854Z,23.50
2019-04-10T08:38:18.006Z,22.02
2019-04-10T08:39:32.177Z,21.74
2019-04-10T08:40:19.119Z,22.43
2019-04-10T08:41:19.195Z,22.84
2019-04-10T08:42:18.905Z,23.38
2019-04-10T08:43:18.091Z,23.92
2019-04-10T08:44:17.934Z,24.02
2019-04-10T08:45:18.908Z,24.12
2019-04-10T08:46:17.934Z,23.71
2019-04-10T08:47:17.905Z,23.42
2019-04-10T08:48:17.892Z,22.52
2019-04-10T08:49:18.391Z,22.71
2019-04-10T08:50:17.876Z,22.44
2019-04-10T08:51:17.880Z,21.95
2019-04-10T08:52:17.850Z,22.35
2019-04-10T08:53:18.120Z,22.82
2019-04-10T08:54:18.472Z,22.87
2019-04-10T08:55:17.872Z,22.83
2019-04-10T08:56:18.434Z,23.08
2019-04-10T08:57:17.797Z,23.22
2019-04-10T08:58:18.838Z,23.86
2019-04-10T08:59:17.784Z,24.04
2019-04-10T09:00:18.621Z,23.17
2019-04-10T09:01:17.769Z,23.20
2019-04-10T09:02:18.021Z,23.55
2019-04-10T09:03:17.728Z,24.17
2019-04-10T09:04:17.925Z,24.42
2019-04-10T09:05:17.707Z,24.50
2019-04-10T09:06:17.718Z,24.73
2019-04-10T09:07:17.886Z,24.49
2019-04-10T09:08:17.677Z,24.56
2019-04-10T09:09:17.663Z,24.45
2019-04-10T09:10:18.529Z,24.29
2019-04-10T09:11:25.577Z,24.54
2019-04-10T09:12:19.759Z,23.77
2019-04-10T09:13:17.623Z,23.98
2019-04-10T09:14:17.620Z,24.31
2019-04-10T09:15:18.157Z,24.41
2019-04-10T09:16:18.407Z,24.82
2019-04-10T09:17:17.594Z,25.59
2019-04-10T09:18:17.893Z,25.44
2019-04-10T09:19:18.862Z,24.90
2019-04-10T09:20:18.419Z,25.12
2019-04-10T09:21:17.569Z,25.49
2019-04-10T09:22:17.539Z,25.69
2019-04-10T09:23:40.952Z,24.75
2019-04-10T09:24:19.523Z,24.12
2019-04-10T09:25:17.863Z,24.08
2019-04-10T09:26:17.485Z,23.76
2019-04-10T09:27:17.485Z,22.53
2019-04-10T09:28:18.190Z,22.44
2019-04-10T09:29:18.164Z,22.86
2019-04-10T09:30:18.429Z,23.82
2019-04-10T09:31:17.731Z,24.35
2019-04-10T09:32:18.119Z,24.07
2019-04-10T09:33:23.357Z,24.57
2019-04-10T09:34:18.393Z,25.02
2019-04-10T09:35:17.380Z,24.82
2019-04-10T09:36:18.346Z,25.12
2019-04-10T09:37:17.802Z,25.39
2019-04-10T09:38:17.343Z,24.77
2019-04-10T09:39:17.338Z,24.95
2019-04-10T09:40:18.337Z,25.44
2019-04-10T09:41:17.532Z,25.80
2019-04-10T09:42:17.334Z,26.04
2019-04-10T09:43:17.747Z,26.74
2019-04-10T09:44:17.278Z,27.46
2019-04-10T09:45:17.761Z,27.28
2019-04-10T09:46:18.206Z,27.28
2019-04-10T09:47:18.390Z,27.10
2019-04-10T09:48:17.235Z,25.52
2019-04-10T09:49:17.228Z,24.61
2019-04-10T09:50:17.317Z,23.47
2019-04-10T09:51:19.442Z,23.20
2019-04-10T09:52:17.216Z,24.00
2019-04-10T09:53:17.216Z,23.71
2019-04-10T09:54:17.501Z,22.60
2019-04-10T09:55:18.010Z,22.54
2019-04-10T09:56:17.311Z,22.16
2019-04-10T09:57:17.845Z,21.38
2019-04-10T09:58:17.597Z,21.79
2019-04-10T09:59:18.065Z,22.39
2019-04-10T10:00:17.106Z,22.46
2019-04-10T10:01:17.902Z,21.42
2019-04-10T10:02:17.659Z,22.06
2019-04-10T10:03:17.357Z,23.01
2019-04-10T10:04:17.360Z,23.65
2019-04-10T10:05:18.116Z,24.05
2019-04-10T10:06:24.279Z,24.26
2019-04-10T10:07:18.609Z,23.47
2019-04-10T10:08:17.057Z,23.46
2019-04-10T10:09:17.629Z,21.56
2019-04-10T10:10:17.240Z,20.72
2019-04-10T10:11:18.056Z,20.77
2019-04-10T10:12:17.888Z,21.44
2019-04-10T10:13:17.272Z,21.11
2019-04-10T10:14:16.975Z,20.80
2019-04-10T10:15:16.955Z,20.35
2019-04-10T10:16:17.045Z,20.54
2019-04-10T10:17:16.951Z,20.43
2019-04-10T10:18:17.227Z,19.78
2019-04-10T10:19:16.919Z,20.02
2019-04-10T10:20:16.885Z,19.93
2019-04-10T10:21:16.878Z,19.91
2019-04-10T10:22:16.943Z,20.03
2019-04-10T10:23:17.913Z,20.51
2019-04-10T10:24:16.860Z,21.19
2019-04-10T10:25:17.395Z,20.96
2019-04-10T10:26:17.564Z,20.68
2019-04-10T10:27:17.750Z,20.98
2019-04-10T10:28:16.800Z,21.24
2019-04-10T10:29:17.669Z,21.32
2019-04-10T10:30:17.624Z,21.11
2019-04-10T10:31:16.875Z,20.18
2019-04-10T10:32:17.098Z,20.38
2019-04-10T10:33:17.453Z,20.84
2019-04-10T10:34:16.748Z,21.27
2019-04-10T10:35:16.852Z,21.98
2019-04-10T10:36:17.805Z,22.10
2019-04-10T10:37:16.774Z,22.17
2019-04-10T10:38:16.734Z,21.82
2019-04-10T10:39:17.320Z,22.25
2019-04-10T10:40:17.209Z,21.92
2019-04-10T10:41:16.654Z,22.60
2019-04-10T10:42:16.652Z,23.15
2019-04-10T10:43:16.633Z,21.95
2019-04-10T10:44:17.326Z,21.81
2019-04-10T10:45:16.637Z,22.38
2019-04-10T10:46:17.532Z,23.02
2019-04-10T10:47:16.585Z,23.70
2019-04-10T10:48:17.527Z,23.85
2019-04-10T10:49:16.567Z,23.97
2019-04-10T10:50:17.178Z,23.24
2019-04-10T10:51:16.543Z,23.26
2019-04-10T10:52:17.523Z,23.14
2019-04-10T10:53:16.517Z,22.52
2019-04-10T10:54:16.890Z,22.47
2019-04-10T10:55:16.522Z,21.88
2019-04-10T10:56:16.487Z,22.02
2019-04-10T10:57:17.241Z,21.51
2019-04-10T10:58:16.467Z,21.50
2019-04-10T10:59:17.510Z,22.34
2019-04-10T11:00:16.989Z,23.26
2019-04-10T11:01:16.432Z,24.02
2019-04-10T11:02:17.119Z,23.76
2019-04-10T11:03:16.410Z,23.52
2019-04-10T11:04:16.397Z,22.56
2019-04-10T11:05:16.971Z,21.81
2019-04-10T11:06:17.738Z,21.63
2019-04-10T11:07:16.367Z,21.51
2019-04-10T11:08:17.467Z,21.34
2019-04-10T11:09:16.347Z,21.44
2019-04-10T11:10:21.833Z,22.28
2019-04-10T11:11:17.340Z,22.67
2019-04-10T11:12:16.313Z,21.91
2019-04-10T11:13:16.704Z,21.57
2019-04-10T11:14:16.294Z,22.13
2019-04-10T11:15:16.293Z,21.23
2019-04-10T11:16:16.983Z,21.24
2019-04-10T11:17:16.257Z,21.71
2019-04-10T11:18:16.246Z,21.67
2019-04-10T11:19:17.282Z,22.02
2019-04-10T11:20:17.645Z,22.41
2019-04-10T11:21:16.779Z,21.02
2019-04-10T11:22:19.975Z,20.98
2019-04-10T11:23:18.173Z,20.91
2019-04-10T11:24:17.275Z,21.41
2019-04-10T11:25:16.169Z,22.02
2019-04-10T11:26:20.564Z,22.78
2019-04-10T11:27:18.036Z,23.24
2019-04-10T11:28:16.378Z,23.57
2019-04-10T11:29:17.465Z,23.98
2019-04-10T11:30:16.170Z,23.64
2019-04-10T11:31:17.330Z,22.94
2019-04-10T11:32:16.113Z,22.41
2019-04-10T11:33:17.570Z,23.05
2019-04-10T11:34:16.508Z,23.34
2019-04-10T11:35:17.408Z,23.68
2019-04-10T11:36:17.443Z,23.61
2019-04-10T11:37:24.171Z,23.86
2019-04-10T11:38:17.595Z,23.79
2019-04-10T11:39:22.735Z,24.24
2019-04-10T11:40:18.038Z,24.47
2019-04-10T11:41:18.919Z,24.63
2019-04-10T11:42:16.009Z,24.60
2019-04-10T11:43:16.671Z,23.95
2019-04-10T11:44:17.190Z,23.49
2019-04-10T11:45:17.036Z,23.05
2019-04-10T11:46:16.921Z,23.26
2019-04-10T11:47:17.413Z,23.45
2019-04-10T11:48:18.302Z,23.50
2019-04-10T11:49:17.806Z,23.85
2019-04-10T11:50:18.386Z,23.75
2019-04-10T11:51:16.479Z,23.58
2019-04-10T11:52:17.330Z,23.52
2019-04-10T11:53:17.763Z,23.26
2019-04-10T11:54:18.116Z,23.32
2019-04-10T11:56:19.143Z,21.88
2019-04-10T11:57:16.701Z,22.07
2019-04-10T11:58:17.793Z,22.47
2019-04-10T11:59:21.160Z,22.37
2019-04-10T12:00:19.844Z,22.35
2019-04-10T12:01:17.556Z,22.43
2019-04-10T12:02:20.460Z,22.64
2019-04-10T12:03:18.172Z,23.15
2019-04-10T12:04:19.218Z,23.45
2019-04-10T12:06:18.535Z,23.11
2019-04-10T12:08:36.204Z,23.65
2019-04-10T12:09:58.946Z,24.29
2019-04-10T12:11:19.834Z,24.53
2019-04-10T12:12:15.652Z,24.60
2019-04-10T12:13:17.075Z,24.98
2019-04-10T12:14:15.630Z,25.07
2019-04-10T12:15:17.081Z,24.45
2019-04-10T12:16:16.737Z,23.04
2019-04-10T12:17:16.030Z,22.96
2019-04-10T12:18:16.155Z,23.38
2019-04-10T12:19:15.570Z,23.60
2019-04-10T12:20:16.647Z,23.90
2019-04-10T12:21:15.768Z,23.95
2019-04-10T12:22:15.737Z,24.37
2019-04-10T12:23:16.681Z,24.59
2019-04-10T12:24:16.206Z,24.59
2019-04-10T12:25:15.527Z,24.79
2019-04-10T12:26:15.820Z,25.02
2019-04-10T12:27:15.484Z,24.56
2019-04-10T12:28:15.868Z,24.79
2019-04-10T12:29:16.260Z,24.59
2019-04-10T12:30:15.447Z,24.17
2019-04-10T12:31:15.639Z,24.08
2019-04-10T12:32:15.430Z,23.92
2019-04-10T12:33:15.434Z,23.71
2019-04-10T12:34:16.262Z,23.70
2019-04-10T12:35:15.400Z,24.10
2019-04-10T12:36:15.382Z,24.23
2019-04-10T12:37:15.447Z,24.49
2019-04-10T12:38:15.385Z,24.63
2019-04-10T12:39:16.213Z,24.90
2019-04-10T12:40:15.340Z,24.73
2019-04-10T12:41:15.336Z,24.94
2019-04-10T12:42:16.396Z,25.02
2019-04-10T12:43:15.322Z,24.80
2019-04-10T12:44:15.839Z,24.22
2019-04-10T12:45:15.779Z,23.98
2019-04-10T12:46:15.272Z,23.50
2019-04-10T12:47:15.524Z,22.93
2019-04-10T12:48:15.269Z,22.50
2019-04-10T12:49:15.241Z,22.64
2019-04-10T12:50:16.192Z,22.89
2019-04-10T12:51:15.217Z,22.77
2019-04-10T12:52:16.344Z,22.75
2019-04-10T12:53:15.637Z,23.20
2019-04-10T12:54:15.183Z,23.49
2019-04-10T12:55:15.171Z,23.61
2019-04-10T12:56:15.769Z,23.89
2019-04-10T12:57:15.160Z,24.16
2019-04-10T12:58:17.494Z,24.34
2019-04-10T12:59:15.233Z,24.26
2019-04-10T13:00:16.004Z,24.39
2019-04-10T13:01:22.729Z,24.52
2019-04-10T13:02:16.346Z,24.68
2019-04-10T13:03:15.107Z,24.94
2019-04-10T13:04:15.822Z,24.97
2019-04-10T13:05:15.060Z,24.83
2019-04-10T13:06:15.776Z,24.95
2019-04-10T13:07:15.779Z,24.88
2019-04-10T13:08:21.138Z,24.75